createdAt,value
2022-09-24T00:00:29.336Z,50.30
2022-09-24T00:02:55.631Z,48.58
2022-09-24T00:05:22.065Z,47.70
2022-09-24T00:07:48.330Z,45.13
2022-09-24T00:10:14.588Z,50.92
2022-09-24T00:12:42.020Z,66.40
2022-09-24T00:15:08.286Z,75.03
2022-09-24T00:17:34.559Z,75.90
2022-09-24T00:20:00.801Z,80.68
2022-09-24T00:22:27.052Z,76.38
2022-09-24T00:25:12.086Z,55.55
2022-09-24T00:27:38.344Z,45.20
2022-09-24T00:30:04.583Z,55.55
2022-09-24T00:32:30.994Z,51.60
2022-09-24T00:34:57.245Z,52.80
2022-09-24T00:37:23.532Z,50.95
2022-09-24T00:39:49.811Z,60.28
2022-09-24T00:42:16.063Z,55.58
2022-09-24T00:44:42.328Z,60.25
2022-09-24T00:47:09.153Z,54.60
2022-09-24T00:49:35.460Z,49.20
2022-09-24T00:52:02.032Z,48.78
2022-09-24T00:54:28.439Z,44.55
2022-09-24T00:56:54.731Z,46.40
2022-09-24T00:59:20.978Z,46.60
2022-09-24T01:01:47.362Z,42.10
2022-09-24T01:04:13.717Z,45.35
2022-09-24T01:06:40.005Z,45.97
2022-09-24T01:09:06.262Z,55.60
2022-09-24T01:11:32.518Z,58.75
2022-09-24T01:14:00.265Z,69.03
2022-09-24T01:16:26.557Z,64.20
2022-09-24T01:18:52.859Z,52.28
2022-09-24T01:21:19.849Z,47.33
2022-09-24T01:23:48.764Z,49.50
2022-09-24T01:26:19.848Z,48.47
2022-09-24T01:28:46.248Z,48.63
2022-09-24T01:31:14.822Z,48.97
2022-09-24T01:33:41.118Z,45.55
2022-09-24T01:36:08.396Z,43.20
2022-09-24T01:38:34.797Z,41.20
2022-09-24T01:41:02.671Z,47.65
2022-09-24T01:43:30.303Z,52.63
2022-09-24T01:45:58.735Z,59.10
2022-09-24T01:48:24.994Z,72.95
2022-09-24T01:50:51.264Z,77.00
2022-09-24T01:53:17.543Z,99.85
2022-09-24T01:55:43.796Z,95.40
2022-09-24T01:58:10.450Z,90.85
2022-09-24T02:00:37.054Z,73.22
2022-09-24T02:03:03.358Z,62.78
2022-09-24T02:05:29.667Z,55.38
2022-09-24T02:07:58.362Z,58.97
2022-09-24T02:10:24.606Z,59.22
2022-09-24T02:12:52.667Z,58.90
2022-09-24T02:17:49.600Z,49.17
2022-09-24T02:20:16.026Z,55.25
2022-09-24T02:22:42.285Z,60.00
2022-09-24T02:25:08.539Z,63.80
2022-09-24T02:27:35.088Z,61.10
2022-09-24T02:30:01.333Z,57.83
2022-09-24T02:32:27.587Z,57.42
2022-09-24T02:34:53.837Z,60.05
2022-09-24T02:37:20.344Z,56.28
2022-09-24T02:39:46.584Z,62.88
2022-09-24T02:42:13.634Z,66.15
2022-09-24T02:44:39.877Z,68.47
2022-09-24T02:47:06.610Z,72.07
2022-09-24T02:49:32.865Z,73.07
2022-09-24T02:51:59.120Z,66.22
2022-09-24T02:54:25.381Z,64.65
2022-09-24T02:56:51.651Z,68.47
2022-09-24T02:59:19.136Z,67.65
2022-09-24T03:01:45.540Z,67.40
2022-09-24T03:04:11.863Z,61.95
2022-09-24T03:06:38.174Z,67.13
2022-09-24T03:09:04.432Z,61.83
2022-09-24T03:11:32.942Z,56.45
2022-09-24T03:13:59.269Z,62.75
2022-09-24T03:16:25.591Z,60.38
2022-09-24T03:18:51.880Z,61.63
2022-09-24T03:21:18.140Z,59.25
2022-09-24T03:23:44.412Z,64.05
2022-09-24T03:26:10.672Z,59.53
2022-09-24T03:28:37.063Z,60.53
2022-09-24T03:31:03.403Z,59.47
2022-09-24T03:33:29.731Z,56.65
2022-09-24T03:35:56.083Z,62.38
2022-09-24T03:38:22.332Z,63.00
2022-09-24T03:40:48.678Z,60.08
2022-09-24T03:43:14.968Z,58.45
2022-09-24T03:45:41.299Z,58.20
2022-09-24T03:48:07.542Z,51.38
2022-09-24T03:50:33.795Z,54.72
2022-09-24T03:53:00.038Z,56.20
2022-09-24T03:55:26.294Z,52.72
2022-09-24T03:57:52.547Z,50.92
2022-09-24T04:00:18.818Z,55.22
2022-09-24T04:02:45.348Z,52.80
2022-09-24T04:05:11.642Z,51.40
2022-09-24T04:07:38.051Z,50.67
2022-09-24T04:10:04.292Z,63.83
2022-09-24T04:12:31.141Z,75.63
2022-09-24T04:14:57.407Z,76.38
2022-09-24T04:17:23.652Z,89.22
2022-09-24T04:19:50.961Z,86.30
2022-09-24T04:22:17.206Z,74.55
2022-09-24T04:24:43.464Z,53.72
2022-09-24T04:27:09.726Z,51.60
2022-09-24T04:29:35.995Z,57.70
2022-09-24T04:32:03.118Z,74.10
2022-09-24T04:34:29.296Z,88.97
2022-09-24T04:36:55.565Z,75.78
2022-09-24T04:39:26.532Z,56.95
2022-09-24T04:41:52.774Z,47.83
2022-09-24T04:44:19.023Z,47.42
2022-09-24T04:46:45.365Z,52.25
2022-09-24T04:49:11.801Z,52.22
2022-09-24T04:51:38.102Z,53.92
2022-09-24T04:54:04.356Z,56.00
2022-09-24T04:56:30.885Z,51.88
2022-09-24T04:58:57.429Z,57.47
2022-09-24T05:01:23.817Z,54.70
2022-09-24T05:03:50.171Z,54.63
2022-09-24T05:06:16.507Z,54.38
2022-09-24T05:08:42.768Z,58.17
2022-09-24T05:11:09.240Z,54.67
2022-09-24T05:13:35.771Z,60.53
2022-09-24T05:16:02.086Z,58.00
2022-09-24T05:18:28.397Z,57.28
2022-09-24T05:20:54.704Z,56.70
2022-09-24T05:23:20.979Z,59.72
2022-09-24T05:26:06.039Z,56.78
2022-09-24T05:28:35.228Z,55.20
2022-09-24T05:31:02.070Z,51.22
2022-09-24T05:33:28.375Z,55.38
2022-09-24T05:35:54.883Z,57.85
2022-09-24T05:38:21.150Z,55.13
2022-09-24T05:40:50.365Z,59.70
2022-09-24T05:43:16.758Z,57.13
2022-09-24T05:45:43.015Z,60.58
2022-09-24T05:48:09.297Z,58.22
2022-09-24T05:50:35.576Z,56.78
2022-09-24T05:53:01.838Z,57.50
2022-09-24T05:55:32.170Z,61.95
2022-09-24T05:57:59.248Z,62.38
2022-09-24T06:00:25.522Z,59.28
2022-09-24T06:02:51.811Z,60.13
2022-09-24T06:05:18.142Z,60.92
2022-09-24T06:07:44.399Z,59.20
2022-09-24T06:10:11.075Z,60.55
2022-09-24T06:12:37.325Z,58.05
2022-09-24T06:15:03.578Z,61.17
2022-09-24T06:17:32.042Z,70.78
2022-09-24T06:19:58.303Z,80.97
2022-09-24T06:22:28.311Z,85.10
2022-09-24T06:24:55.149Z,84.88
2022-09-24T06:27:21.420Z,90.70
2022-09-24T06:29:47.718Z,65.57
2022-09-24T06:32:13.996Z,63.17
2022-09-24T06:34:40.256Z,75.88
2022-09-24T06:37:06.506Z,86.57
2022-09-24T06:39:32.779Z,74.43
2022-09-24T06:41:59.289Z,63.10
2022-09-24T06:44:25.995Z,59.30
2022-09-24T06:46:54.738Z,61.22
2022-09-24T06:49:21.032Z,88.78
2022-09-24T06:51:47.290Z,94.30
2022-09-24T06:54:13.571Z,80.63
2022-09-24T06:56:40.293Z,63.78
2022-09-24T06:59:09.007Z,60.30
2022-09-24T07:01:35.403Z,57.33
2022-09-24T07:04:01.728Z,58.83
2022-09-24T07:06:47.929Z,60.95
2022-09-24T07:09:14.536Z,86.35
2022-09-24T07:11:41.052Z,75.68
2022-09-24T07:14:07.363Z,50.13
2022-09-24T07:16:33.842Z,56.90
2022-09-24T07:19:00.145Z,67.22
2022-09-24T07:21:26.407Z,50.00
2022-09-24T07:23:57.767Z,73.72
2022-09-24T07:26:24.763Z,52.03
2022-09-24T07:28:51.027Z,62.20
2022-09-24T07:31:17.536Z,51.60
2022-09-24T07:33:43.847Z,55.33
2022-09-24T07:36:10.112Z,103.07
2022-09-24T07:38:36.451Z,57.17
2022-09-24T07:41:05.987Z,56.20
2022-09-24T07:43:33.158Z,60.22
2022-09-24T07:45:59.390Z,46.77
2022-09-24T07:48:25.666Z,56.38
2022-09-24T07:50:51.955Z,52.58
2022-09-24T07:53:18.216Z,50.65
2022-09-24T07:55:45.379Z,70.55
2022-09-24T07:58:11.577Z,47.73
2022-09-24T08:00:37.837Z,53.78
2022-09-24T08:03:04.104Z,54.20
2022-09-24T08:05:30.422Z,54.30
2022-09-24T08:07:56.972Z,64.15
2022-09-24T08:10:23.251Z,40.10
2022-09-24T08:12:49.540Z,41.47
2022-09-24T08:15:15.825Z,44.67
2022-09-24T08:17:42.070Z,49.63
2022-09-24T08:20:08.316Z,44.95
2022-09-24T08:22:34.570Z,44.95
2022-09-24T08:25:02.864Z,65.28
2022-09-24T08:27:29.120Z,59.42
2022-09-24T08:29:56.371Z,47.22
2022-09-24T08:32:22.621Z,48.50
2022-09-24T08:34:48.869Z,70.35
2022-09-24T08:37:15.115Z,82.07
2022-09-24T08:39:41.436Z,49.00
2022-09-24T08:42:07.682Z,66.45
2022-09-24T08:44:52.821Z,55.63
2022-09-24T08:47:25.140Z,49.13
2022-09-24T08:49:51.395Z,70.10
2022-09-24T08:52:17.672Z,95.50
2022-09-24T08:54:43.924Z,43.47
2022-09-24T08:57:11.401Z,55.25
2022-09-24T08:59:37.658Z,114.78
2022-09-24T09:02:04.037Z,92.75
2022-09-24T09:04:30.408Z,67.97
2022-09-24T09:06:56.670Z,190.35
2022-09-24T09:09:23.005Z,258.30
2022-09-24T09:11:49.288Z,264.10
2022-09-24T09:14:15.561Z,149.40
2022-09-24T09:16:41.818Z,134.27
2022-09-24T09:19:08.210Z,310.58
2022-09-24T09:21:34.577Z,199.93
2022-09-24T09:24:00.844Z,75.95
2022-09-24T09:26:27.221Z,108.60
2022-09-24T09:28:54.045Z,120.20
2022-09-24T09:31:20.508Z,136.65
2022-09-24T09:33:46.806Z,230.02
2022-09-24T09:36:13.071Z,280.73
2022-09-24T09:38:40.524Z,198.05
2022-09-24T09:41:06.831Z,117.68
2022-09-24T09:43:33.114Z,108.63
2022-09-24T09:45:59.459Z,109.40
2022-09-24T09:48:26.133Z,93.53
2022-09-24T09:50:54.497Z,88.63
2022-09-24T09:53:21.122Z,102.55
2022-09-24T09:55:47.372Z,157.77
2022-09-24T09:58:13.618Z,208.43
2022-09-24T10:00:39.894Z,194.15
2022-09-24T10:03:06.267Z,117.85
2022-09-24T10:05:32.741Z,117.72
2022-09-24T10:07:59.024Z,113.93
2022-09-24T10:10:25.420Z,133.98
2022-09-24T10:12:51.670Z,190.30
2022-09-24T10:15:17.925Z,162.45
2022-09-24T10:17:44.180Z,169.63
2022-09-24T10:20:10.457Z,134.55
2022-09-24T10:22:36.720Z,186.57
2022-09-24T10:25:02.977Z,152.18
2022-09-24T10:27:29.245Z,170.43
2022-09-24T10:30:14.470Z,259.20
2022-09-24T10:32:41.265Z,194.38
2022-09-24T10:35:07.594Z,159.63
2022-09-24T10:37:33.843Z,177.57
2022-09-24T10:40:00.149Z,178.63
2022-09-24T10:42:26.456Z,176.05
2022-09-24T10:44:53.743Z,175.60
2022-09-24T10:47:20.086Z,175.27
2022-09-24T10:49:46.392Z,175.52
2022-09-24T10:52:12.647Z,172.68
2022-09-24T10:54:38.921Z,418.23
2022-09-24T10:57:05.536Z,478.27
2022-09-24T10:59:32.000Z,999.90
2022-09-24T11:01:58.316Z,999.90
2022-09-24T11:04:24.652Z,999.90
2022-09-24T11:06:51.056Z,999.90
2022-09-24T11:09:17.336Z,999.90
2022-09-24T11:11:43.763Z,999.90
2022-09-24T11:14:10.072Z,999.90
2022-09-24T11:16:38.870Z,999.90
2022-09-24T11:19:05.128Z,999.90
2022-09-24T11:21:31.392Z,999.90
2022-09-24T11:23:57.652Z,999.90
2022-09-24T11:26:23.937Z,999.90
2022-09-24T11:28:50.204Z,999.90
2022-09-24T11:31:16.642Z,999.90
2022-09-24T11:33:42.945Z,999.90
2022-09-24T11:36:09.779Z,999.90
2022-09-24T11:38:36.042Z,999.90
2022-09-24T11:41:03.087Z,999.90
2022-09-24T11:43:31.880Z,999.90
2022-09-24T11:45:59.082Z,999.90
2022-09-24T11:48:25.345Z,999.90
2022-09-24T11:50:51.600Z,999.90
2022-09-24T11:53:17.867Z,999.90
2022-09-24T11:55:44.327Z,999.90
2022-09-24T11:58:10.597Z,999.90
2022-09-24T12:00:36.857Z,999.90
2022-09-24T12:03:04.671Z,999.90
2022-09-24T12:07:57.225Z,999.90
2022-09-24T12:10:24.977Z,999.90
2022-09-24T12:12:51.329Z,999.90
2022-09-24T12:15:20.556Z,999.90
2022-09-24T12:17:47.483Z,999.90
2022-09-24T12:20:13.688Z,999.90
2022-09-24T12:22:39.964Z,999.90
2022-09-24T12:25:08.495Z,999.90
2022-09-24T12:27:34.768Z,999.90
2022-09-24T12:30:19.900Z,999.90
2022-09-24T12:32:55.249Z,999.90
2022-09-24T12:35:21.495Z,999.90
2022-09-24T12:37:47.758Z,999.90
2022-09-24T12:40:14.109Z,999.90
2022-09-24T12:42:40.413Z,999.90
2022-09-24T12:45:06.665Z,999.90
2022-09-24T12:47:33.224Z,999.90
2022-09-24T12:49:59.506Z,999.90
2022-09-24T12:52:25.812Z,999.90
2022-09-24T12:54:52.110Z,999.90
2022-09-24T12:57:24.284Z,999.90
2022-09-24T12:59:51.769Z,999.90
2022-09-24T13:02:18.283Z,999.90
2022-09-24T13:04:44.630Z,999.90
2022-09-24T13:07:10.908Z,999.90
2022-09-24T13:09:37.245Z,999.90
2022-09-24T13:12:03.510Z,999.90
2022-09-24T13:14:29.939Z,999.90
2022-09-24T13:16:56.633Z,999.90
2022-09-24T13:19:25.939Z,999.90
2022-09-24T13:21:52.205Z,999.90
2022-09-24T13:24:18.459Z,999.90
2022-09-24T13:26:44.711Z,999.90
2022-09-24T13:29:11.600Z,999.90
2022-09-24T13:31:38.084Z,999.90
2022-09-24T13:34:04.668Z,999.90
2022-09-24T13:36:31.267Z,999.90
2022-09-24T13:38:57.656Z,999.90
2022-09-24T13:41:23.936Z,999.90
2022-09-24T13:43:50.212Z,999.90
2022-09-24T13:46:16.556Z,999.90
2022-09-24T13:48:42.906Z,999.90
2022-09-24T13:51:09.164Z,999.90
2022-09-24T13:53:35.415Z,999.90
2022-09-24T13:56:01.673Z,999.90
2022-09-24T13:58:28.050Z,999.90
2022-09-24T14:00:54.326Z,999.90
2022-09-24T14:03:20.779Z,999.90
2022-09-24T14:05:47.101Z,999.90
2022-09-24T14:08:13.354Z,999.90
2022-09-24T14:10:40.096Z,999.90
2022-09-24T14:13:06.362Z,999.90
2022-09-24T14:15:32.762Z,999.90
2022-09-24T14:17:59.113Z,999.90
2022-09-24T14:20:25.932Z,999.90
2022-09-24T14:22:52.189Z,999.90
2022-09-24T14:25:18.443Z,999.90
2022-09-24T14:27:44.692Z,999.90
2022-09-24T14:30:10.975Z,999.90
2022-09-24T14:32:37.231Z,999.90
2022-09-24T14:35:03.494Z,999.90
2022-09-24T14:37:31.192Z,999.90
2022-09-24T14:39:57.447Z,999.90
2022-09-24T14:42:23.726Z,999.90
2022-09-24T14:44:49.997Z,999.90
2022-09-24T14:47:16.267Z,999.90
2022-09-24T14:49:42.896Z,999.90
2022-09-24T14:52:10.749Z,999.90
2022-09-24T14:57:04.568Z,999.90
2022-09-24T14:59:30.832Z,999.90
2022-09-24T15:01:57.117Z,999.90
2022-09-24T15:04:23.543Z,999.90
2022-09-24T15:06:49.856Z,999.90
2022-09-24T15:09:16.112Z,999.90
2022-09-24T15:11:43.762Z,999.90
2022-09-24T15:16:37.490Z,999.90
2022-09-24T15:19:03.757Z,999.90
2022-09-24T15:21:30.053Z,999.90
2022-09-24T15:23:56.535Z,999.90
2022-09-24T15:26:22.830Z,999.90
2022-09-24T15:28:49.079Z,999.90
2022-09-24T15:31:15.374Z,999.90
2022-09-24T15:33:41.708Z,999.90
2022-09-24T15:36:07.980Z,999.90
2022-09-24T15:38:34.254Z,999.90
2022-09-24T15:41:00.534Z,999.90
2022-09-24T15:43:26.890Z,999.90
2022-09-24T15:45:53.165Z,999.90
2022-09-24T15:48:19.415Z,999.90
2022-09-24T15:50:45.718Z,999.90
2022-09-24T15:53:12.008Z,999.90
2022-09-24T15:55:38.293Z,999.90
2022-09-24T15:58:04.899Z,999.90
2022-09-24T16:00:31.160Z,999.90
2022-09-24T16:02:57.624Z,599.00
2022-09-24T16:05:24.022Z,549.30
2022-09-24T16:07:50.321Z,364.80
2022-09-24T16:10:16.583Z,194.38
2022-09-24T16:12:42.850Z,155.80
2022-09-24T16:15:09.312Z,135.50
2022-09-24T16:17:35.607Z,121.13
2022-09-24T16:20:01.872Z,219.23
2022-09-24T16:22:28.123Z,256.38
2022-09-24T16:24:54.397Z,300.67
2022-09-24T16:27:20.661Z,331.75
2022-09-24T16:29:46.951Z,339.48
2022-09-24T16:32:13.820Z,279.10
2022-09-24T16:34:41.779Z,225.75
2022-09-24T16:39:34.413Z,120.88
2022-09-24T16:42:01.108Z,112.40
2022-09-24T16:44:27.364Z,103.10
2022-09-24T16:46:55.291Z,122.50
2022-09-24T16:51:47.736Z,79.43
2022-09-24T16:54:13.995Z,101.43
2022-09-24T16:56:40.316Z,95.68
2022-09-24T16:59:06.645Z,132.50
2022-09-24T17:01:32.990Z,292.73
2022-09-24T17:03:59.338Z,435.08
2022-09-24T17:06:25.689Z,424.27
2022-09-24T17:09:10.813Z,227.60
2022-09-24T17:11:37.141Z,135.93
2022-09-24T17:14:03.424Z,170.52
2022-09-24T17:16:30.301Z,160.73
2022-09-24T17:18:56.647Z,110.33
2022-09-24T17:21:22.927Z,103.63
2022-09-24T17:23:49.195Z,161.55
2022-09-24T17:26:15.469Z,206.70
2022-09-24T17:28:41.748Z,239.32
2022-09-24T17:31:08.144Z,248.93
2022-09-24T17:33:49.456Z,188.30
2022-09-24T17:36:15.795Z,127.38
2022-09-24T17:38:42.066Z,101.07
2022-09-24T17:41:08.342Z,100.93
2022-09-24T17:43:34.663Z,110.00
2022-09-24T17:46:03.156Z,101.47
2022-09-24T17:48:29.746Z,184.55
2022-09-24T17:50:56.150Z,271.83
2022-09-24T17:53:22.412Z,301.90
2022-09-24T17:55:49.269Z,283.88
2022-09-24T17:58:15.522Z,215.63
2022-09-24T18:00:41.835Z,173.18
2022-09-24T18:03:08.177Z,153.55
2022-09-24T18:05:34.482Z,155.32
2022-09-24T18:08:00.755Z,177.73
2022-09-24T18:10:27.023Z,182.70
2022-09-24T18:12:53.277Z,155.43
2022-09-24T18:15:19.550Z,109.70
2022-09-24T18:17:45.790Z,107.95
2022-09-24T18:20:12.550Z,114.72
2022-09-24T18:22:39.611Z,116.45
2022-09-24T18:25:05.808Z,126.13
2022-09-24T18:27:32.101Z,131.00
2022-09-24T18:29:58.364Z,131.75
2022-09-24T18:32:26.241Z,125.72
2022-09-24T18:34:52.504Z,139.88
2022-09-24T18:37:18.751Z,217.77
2022-09-24T18:39:45.007Z,284.52
2022-09-24T18:42:11.259Z,234.77
2022-09-24T18:44:37.512Z,164.52
2022-09-24T18:47:03.756Z,159.90
2022-09-24T18:49:30.007Z,180.88
2022-09-24T18:51:56.267Z,133.77
2022-09-24T18:54:24.501Z,84.32
2022-09-24T18:56:50.756Z,96.18
2022-09-24T18:59:18.076Z,168.40
2022-09-24T19:01:44.929Z,165.50
2022-09-24T19:04:11.244Z,91.70
2022-09-24T19:06:37.490Z,70.75
2022-09-24T19:09:04.874Z,71.50
2022-09-24T19:11:31.604Z,67.95
2022-09-24T19:13:57.987Z,84.50
2022-09-24T19:16:24.331Z,76.13
2022-09-24T19:18:50.614Z,62.85
2022-09-24T19:21:16.888Z,63.80
2022-09-24T19:23:43.417Z,101.50
2022-09-24T19:26:09.686Z,133.52
2022-09-24T19:28:35.968Z,102.60
2022-09-24T19:31:02.340Z,96.93
2022-09-24T19:33:28.780Z,108.40
2022-09-24T19:35:55.058Z,101.22
2022-09-24T19:38:21.339Z,76.70
2022-09-24T19:40:47.636Z,87.05
2022-09-24T19:43:14.037Z,124.85
2022-09-24T19:45:40.307Z,117.90
2022-09-24T19:48:06.558Z,96.55
2022-09-24T19:50:34.913Z,114.32
2022-09-24T19:53:01.416Z,161.15
2022-09-24T19:55:28.803Z,151.27
2022-09-24T19:57:56.278Z,152.00
2022-09-24T20:00:24.912Z,145.60
2022-09-24T20:02:52.313Z,145.43
2022-09-24T20:05:18.610Z,145.15
2022-09-24T20:07:45.771Z,150.85
2022-09-24T20:10:11.996Z,169.20
2022-09-24T20:12:39.016Z,174.85
2022-09-24T20:15:05.281Z,178.82
2022-09-24T20:17:31.559Z,171.57
2022-09-24T20:20:00.783Z,165.23
2022-09-24T20:22:27.162Z,165.85
2022-09-24T20:24:53.415Z,153.63
2022-09-24T20:27:42.934Z,164.98
2022-09-24T20:30:10.534Z,155.25
2022-09-24T20:32:36.779Z,149.20
2022-09-24T20:35:03.036Z,138.27
2022-09-24T20:37:29.345Z,117.68
2022-09-24T20:39:55.614Z,113.30
2022-09-24T20:42:21.869Z,98.70
2022-09-24T20:44:48.933Z,93.88
2022-09-24T20:47:15.121Z,93.10
2022-09-24T20:49:41.389Z,96.63
2022-09-24T20:52:07.736Z,106.85
2022-09-24T20:54:34.152Z,101.68
2022-09-24T20:57:00.420Z,74.88
2022-09-24T20:59:27.009Z,69.13
2022-09-24T21:01:53.300Z,70.57
2022-09-24T21:04:20.304Z,64.35
2022-09-24T21:06:46.592Z,59.17
2022-09-24T21:09:12.844Z,67.22
2022-09-24T21:11:39.101Z,63.40
2022-09-24T21:14:05.384Z,52.08
2022-09-24T21:16:31.821Z,60.42
2022-09-24T21:18:58.149Z,68.40
2022-09-24T21:21:24.408Z,73.85
2022-09-24T21:23:50.669Z,67.55
2022-09-24T21:26:19.705Z,64.72
2022-09-24T21:28:48.982Z,54.42
2022-09-24T21:31:15.307Z,50.22
2022-09-24T21:33:41.594Z,57.67
2022-09-24T21:36:07.844Z,74.40
2022-09-24T21:38:35.097Z,91.50
2022-09-24T21:41:03.171Z,100.32
2022-09-24T21:46:01.202Z,91.40
2022-09-24T21:48:27.566Z,66.90
2022-09-24T21:50:53.814Z,70.78
2022-09-24T21:53:20.258Z,70.00
2022-09-24T21:55:47.000Z,81.95
2022-09-24T21:58:13.263Z,117.95
2022-09-24T22:00:39.516Z,85.50
2022-09-24T22:03:05.831Z,127.25
2022-09-24T22:05:32.348Z,126.65
2022-09-24T22:07:58.624Z,79.72
2022-09-24T22:10:25.601Z,56.72
2022-09-24T22:12:51.880Z,57.65
2022-09-24T22:15:18.143Z,56.33
2022-09-24T22:17:44.391Z,50.97
2022-09-24T22:20:10.714Z,51.97
2022-09-24T22:22:36.959Z,56.22
2022-09-24T22:25:03.215Z,53.58
2022-09-24T22:27:29.462Z,51.47
2022-09-24T22:29:55.739Z,74.70
2022-09-24T22:32:22.004Z,126.18
2022-09-24T22:35:06.990Z,188.60
2022-09-24T22:37:33.258Z,140.98
2022-09-24T22:39:59.609Z,89.32
2022-09-24T22:42:25.983Z,75.53
2022-09-24T22:44:52.313Z,72.07
2022-09-24T22:47:18.573Z,97.70
2022-09-24T22:49:44.846Z,187.93
2022-09-24T22:52:11.108Z,132.13
2022-09-24T22:54:37.383Z,74.45
2022-09-24T22:57:03.644Z,107.35
2022-09-24T22:59:29.894Z,165.73
2022-09-24T23:01:56.169Z,166.35
2022-09-24T23:04:22.775Z,174.82
2022-09-24T23:06:49.065Z,114.00
2022-09-24T23:09:15.313Z,75.03
2022-09-24T23:11:41.554Z,72.03
2022-09-24T23:14:07.829Z,105.00
2022-09-24T23:16:34.340Z,112.22
2022-09-24T23:19:00.715Z,113.97
2022-09-24T23:21:26.982Z,93.10
2022-09-24T23:23:53.249Z,64.03
2022-09-24T23:26:19.509Z,61.22
2022-09-24T23:28:45.782Z,60.20
2022-09-24T23:31:12.080Z,59.97
2022-09-24T23:33:39.314Z,66.95
2022-09-24T23:36:05.504Z,67.17
2022-09-24T23:38:31.765Z,75.90
2022-09-24T23:40:59.304Z,73.93
2022-09-24T23:43:25.560Z,72.95
2022-09-24T23:45:51.865Z,78.45
2022-09-24T23:48:18.141Z,78.53
2022-09-24T23:50:44.429Z,72.72
2022-09-24T23:53:11.936Z,62.75
2022-09-24T23:55:38.213Z,57.70
2022-09-24T23:58:04.486Z,51.05
